createdAt,value
2022-12-12T00:00:36.173Z,55.91
2022-12-12T00:01:36.148Z,52.00
2022-12-12T00:02:36.222Z,47.86
2022-12-12T00:03:36.248Z,47.61
2022-12-12T00:04:36.122Z,46.93
2022-12-12T00:05:36.129Z,44.96
2022-12-12T00:06:36.166Z,48.07
2022-12-12T00:07:36.091Z,46.98
2022-12-12T00:08:36.078Z,61.09
2022-12-12T00:09:36.065Z,50.48
2022-12-12T00:10:36.083Z,49.98
2022-12-12T00:11:36.054Z,45.31
2022-12-12T00:12:36.034Z,45.00
2022-12-12T00:13:36.025Z,44.99
2022-12-12T00:14:36.018Z,47.94
2022-12-12T00:15:36.085Z,51.56
2022-12-12T00:16:35.998Z,62.76
2022-12-12T00:17:37.002Z,47.91
2022-12-12T00:18:36.990Z,46.00
2022-12-12T00:19:35.985Z,45.44
2022-12-12T00:20:35.962Z,54.15
2022-12-12T00:21:35.958Z,56.36
2022-12-12T00:22:35.965Z,47.08
2022-12-12T00:23:35.936Z,44.53
2022-12-12T00:24:35.921Z,50.38
2022-12-12T00:25:35.932Z,51.30
2022-12-12T00:26:41.172Z,49.66
2022-12-12T00:27:36.918Z,47.16
2022-12-12T00:28:35.907Z,44.69
2022-12-12T00:29:35.893Z,45.10
2022-12-12T00:30:35.872Z,44.89
2022-12-12T00:31:35.974Z,49.05
2022-12-12T00:32:35.872Z,56.04
2022-12-12T00:33:35.827Z,48.34
2022-12-12T00:34:36.831Z,51.05
2022-12-12T00:35:35.817Z,51.82
2022-12-12T00:36:35.817Z,50.99
2022-12-12T00:37:35.848Z,47.08
2022-12-12T00:38:35.789Z,49.99
2022-12-12T00:39:35.773Z,55.00
2022-12-12T00:40:35.772Z,49.66
2022-12-12T00:41:35.754Z,48.99
2022-12-12T00:42:35.773Z,48.86
2022-12-12T00:43:35.770Z,48.50
2022-12-12T00:44:35.735Z,50.29
2022-12-12T00:45:35.714Z,49.09
2022-12-12T00:46:35.750Z,54.85
2022-12-12T00:47:35.692Z,60.51
2022-12-12T00:48:35.717Z,45.53
2022-12-12T00:49:35.698Z,46.61
2022-12-12T00:50:35.693Z,44.92
2022-12-12T00:51:35.666Z,46.28
2022-12-12T00:52:35.649Z,46.56
2022-12-12T00:53:36.664Z,53.54
2022-12-12T00:54:35.646Z,61.39
2022-12-12T00:55:35.622Z,54.40
2022-12-12T00:56:35.618Z,52.19
2022-12-12T00:57:35.618Z,47.46
2022-12-12T00:58:35.596Z,47.14
2022-12-12T00:59:35.601Z,52.39
2022-12-12T01:00:35.576Z,52.85
2022-12-12T01:01:35.654Z,45.14
2022-12-12T01:02:35.607Z,44.87
2022-12-12T01:03:35.540Z,44.78
2022-12-12T01:04:35.562Z,45.19
2022-12-12T01:05:35.539Z,47.77
2022-12-12T01:06:35.521Z,44.99
2022-12-12T01:07:35.512Z,44.74
2022-12-12T01:08:35.502Z,44.56
2022-12-12T01:09:35.512Z,44.22
2022-12-12T01:10:35.499Z,45.61
2022-12-12T01:11:36.463Z,47.75
2022-12-12T01:12:35.467Z,55.45
2022-12-12T01:13:35.452Z,50.88
2022-12-12T01:14:35.441Z,50.66
2022-12-12T01:15:35.501Z,47.42
2022-12-12T01:16:35.520Z,43.76
2022-12-12T01:17:35.402Z,43.76
2022-12-12T01:18:35.402Z,54.40
2022-12-12T01:19:35.395Z,53.61
2022-12-12T01:20:35.399Z,49.61
2022-12-12T01:21:35.380Z,50.67
2022-12-12T01:22:35.367Z,46.71
2022-12-12T01:23:35.359Z,46.29
2022-12-12T01:24:35.357Z,46.46
2022-12-12T01:25:35.327Z,45.92
2022-12-12T01:26:35.349Z,50.83
2022-12-12T01:27:35.325Z,45.93
2022-12-12T01:28:35.301Z,43.50
2022-12-12T01:29:35.300Z,46.99
2022-12-12T01:30:35.301Z,47.72
2022-12-12T01:31:35.404Z,49.67
2022-12-12T01:32:35.285Z,50.82
2022-12-12T01:33:35.269Z,49.59
2022-12-12T01:34:35.288Z,51.19
2022-12-12T01:35:35.230Z,56.24
2022-12-12T01:36:35.226Z,46.30
2022-12-12T01:37:35.216Z,46.03
2022-12-12T01:38:35.211Z,64.27
2022-12-12T01:39:35.223Z,46.69
2022-12-12T01:40:35.210Z,46.30
2022-12-12T01:41:35.178Z,46.92
2022-12-12T01:42:35.177Z,52.33
2022-12-12T01:43:35.162Z,48.15
2022-12-12T01:44:35.148Z,46.39
2022-12-12T01:45:35.160Z,47.82
2022-12-12T01:46:35.184Z,53.10
2022-12-12T01:47:35.115Z,53.89
2022-12-12T01:48:36.107Z,45.26
2022-12-12T01:49:36.143Z,45.44
2022-12-12T01:50:35.105Z,50.68
2022-12-12T01:51:35.083Z,51.14
2022-12-12T01:52:35.084Z,48.09
2022-12-12T01:53:35.072Z,56.17
2022-12-12T01:54:35.071Z,54.44
2022-12-12T01:55:35.049Z,55.48
2022-12-12T01:56:35.043Z,53.47
2022-12-12T01:57:35.046Z,51.47
2022-12-12T01:58:35.015Z,47.08
2022-12-12T01:59:35.010Z,51.70
2022-12-12T02:00:35.037Z,51.52
2022-12-12T02:01:34.998Z,52.08
2022-12-12T02:02:35.009Z,61.33
2022-12-12T02:03:34.966Z,47.00
2022-12-12T02:04:34.964Z,54.88
2022-12-12T02:05:34.958Z,50.01
2022-12-12T02:06:34.949Z,51.16
2022-12-12T02:07:34.944Z,47.00
2022-12-12T02:08:34.938Z,48.65
2022-12-12T02:09:34.974Z,47.03
2022-12-12T02:10:34.904Z,63.62
2022-12-12T02:11:34.898Z,53.34
2022-12-12T02:12:34.885Z,54.39
2022-12-12T02:13:34.873Z,54.29
2022-12-12T02:14:34.880Z,48.88
2022-12-12T02:15:34.880Z,56.03
2022-12-12T02:16:34.895Z,53.14
2022-12-12T02:17:34.857Z,51.31
2022-12-12T02:18:34.829Z,45.81
2022-12-12T02:19:34.834Z,51.43
2022-12-12T02:20:34.812Z,52.40
2022-12-12T02:21:34.793Z,49.65
2022-12-12T02:22:34.804Z,63.58
2022-12-12T02:23:34.773Z,64.01
2022-12-12T02:24:34.773Z,51.30
2022-12-12T02:25:34.778Z,57.69
2022-12-12T02:26:34.768Z,52.09
2022-12-12T02:27:34.748Z,51.57
2022-12-12T02:28:34.731Z,57.08
2022-12-12T02:29:34.730Z,52.87
2022-12-12T02:30:34.720Z,52.91
2022-12-12T02:31:34.746Z,51.98
2022-12-12T02:32:34.700Z,43.91
2022-12-12T02:33:34.683Z,45.41
2022-12-12T02:34:34.674Z,48.29
2022-12-12T02:35:34.670Z,48.07
2022-12-12T02:36:34.653Z,48.69
2022-12-12T02:37:34.670Z,50.85
2022-12-12T02:38:34.635Z,49.99
2022-12-12T02:39:34.621Z,48.98
2022-12-12T02:40:34.604Z,59.02
2022-12-12T02:41:34.601Z,47.92
2022-12-12T02:42:34.624Z,47.70
2022-12-12T02:43:34.595Z,51.88
2022-12-12T02:44:34.589Z,52.21
2022-12-12T02:45:34.553Z,51.46
2022-12-12T02:46:34.596Z,51.00
2022-12-12T02:47:34.549Z,53.54
2022-12-12T02:48:34.547Z,52.45
2022-12-12T02:49:34.529Z,56.89
2022-12-12T02:50:34.512Z,63.69
2022-12-12T02:51:34.502Z,49.77
2022-12-12T02:52:34.495Z,54.23
2022-12-12T02:53:34.495Z,51.07
2022-12-12T02:54:34.470Z,49.02
2022-12-12T02:55:36.565Z,49.81
2022-12-12T02:56:35.464Z,66.37
2022-12-12T02:57:34.468Z,56.14
2022-12-12T02:58:34.436Z,52.02
2022-12-12T02:59:34.446Z,54.89
2022-12-12T03:00:34.466Z,53.88
2022-12-12T03:01:34.455Z,52.45
2022-12-12T03:03:06.315Z,50.01
2022-12-12T03:03:34.393Z,53.21
2022-12-12T03:04:34.402Z,54.81
2022-12-12T03:05:34.383Z,54.54
2022-12-12T03:06:39.336Z,51.33
2022-12-12T03:07:36.348Z,54.77
2022-12-12T03:08:34.338Z,47.74
2022-12-12T03:09:34.331Z,44.94
2022-12-12T03:10:34.338Z,49.94
2022-12-12T03:11:34.334Z,58.22
2022-12-12T03:12:34.304Z,53.69
2022-12-12T03:13:34.285Z,51.14
2022-12-12T03:14:35.291Z,52.06
2022-12-12T03:15:34.308Z,49.57
2022-12-12T03:16:34.328Z,51.11
2022-12-12T03:17:34.249Z,59.01
2022-12-12T03:18:34.255Z,53.96
2022-12-12T03:19:34.239Z,49.14
2022-12-12T03:20:34.258Z,51.26
2022-12-12T03:21:34.241Z,49.98
2022-12-12T03:22:34.209Z,52.10
2022-12-12T03:23:34.208Z,49.29
2022-12-12T03:24:34.195Z,56.15
2022-12-12T03:25:34.179Z,58.36
2022-12-12T03:26:34.199Z,55.57
2022-12-12T03:27:34.165Z,52.14
2022-12-12T03:28:34.147Z,54.05
2022-12-12T03:29:34.134Z,57.68
2022-12-12T03:30:34.161Z,52.40
2022-12-12T03:31:34.137Z,55.60
2022-12-12T03:32:34.107Z,56.09
2022-12-12T03:33:34.107Z,54.72
2022-12-12T03:34:34.123Z,58.37
2022-12-12T03:35:34.076Z,56.07
2022-12-12T03:36:34.082Z,52.16
2022-12-12T03:37:34.062Z,48.27
2022-12-12T03:38:34.096Z,53.45
2022-12-12T03:39:34.067Z,54.23
2022-12-12T03:40:34.031Z,57.64
2022-12-12T03:41:34.038Z,54.42
2022-12-12T03:42:34.009Z,52.76
2022-12-12T03:43:34.033Z,52.20
2022-12-12T03:44:39.776Z,53.95
2022-12-12T03:45:35.050Z,57.80
2022-12-12T03:46:34.077Z,55.88
2022-12-12T03:47:33.976Z,57.52
2022-12-12T03:48:33.954Z,54.84
2022-12-12T03:49:33.971Z,64.80
2022-12-12T03:50:33.937Z,59.07
2022-12-12T03:51:33.935Z,59.95
2022-12-12T03:52:33.949Z,62.37
2022-12-12T03:53:33.913Z,59.52
2022-12-12T03:54:33.892Z,56.37
2022-12-12T03:55:33.915Z,56.12
2022-12-12T03:56:33.916Z,59.33
2022-12-12T03:57:33.874Z,59.47
2022-12-12T03:58:33.859Z,60.46
2022-12-12T03:59:33.875Z,60.62
2022-12-12T04:00:33.849Z,66.23
2022-12-12T04:01:33.902Z,62.46
2022-12-12T04:02:33.879Z,59.70
2022-12-12T04:03:33.843Z,57.96
2022-12-12T04:04:33.806Z,57.24
2022-12-12T04:05:33.793Z,59.22
2022-12-12T04:06:33.789Z,58.55
2022-12-12T04:07:33.774Z,55.95
2022-12-12T04:08:33.794Z,58.49
2022-12-12T04:09:33.799Z,57.33
2022-12-12T04:10:33.755Z,57.78
2022-12-12T04:11:33.743Z,57.01
2022-12-12T04:12:33.731Z,57.11
2022-12-12T04:13:33.721Z,55.60
2022-12-12T04:14:33.740Z,54.79
2022-12-12T04:15:33.695Z,57.83
2022-12-12T04:16:33.719Z,59.44
2022-12-12T04:17:33.680Z,66.60
2022-12-12T04:18:33.679Z,57.87
2022-12-12T04:19:33.708Z,56.10
2022-12-12T04:20:33.686Z,55.40
2022-12-12T04:21:33.643Z,57.83
2022-12-12T04:22:33.637Z,57.63
2022-12-12T04:23:33.666Z,59.94
2022-12-12T04:24:33.614Z,60.32
2022-12-12T04:25:33.663Z,58.67
2022-12-12T04:26:33.604Z,59.67
2022-12-12T04:27:33.600Z,58.95
2022-12-12T04:28:33.578Z,59.15
2022-12-12T04:29:33.578Z,59.52
2022-12-12T04:30:33.559Z,63.07
2022-12-12T04:31:33.601Z,58.45
2022-12-12T04:32:33.532Z,55.47
2022-12-12T04:33:33.523Z,58.89
2022-12-12T04:34:33.526Z,59.38
2022-12-12T04:35:33.509Z,60.36
2022-12-12T04:36:33.521Z,58.63
2022-12-12T04:37:33.490Z,66.85
2022-12-12T04:38:33.478Z,58.03
2022-12-12T04:39:33.476Z,59.63
2022-12-12T04:40:33.491Z,60.40
2022-12-12T04:41:33.455Z,59.49
2022-12-12T04:42:33.448Z,59.65
2022-12-12T04:43:33.434Z,58.71
2022-12-12T04:44:33.426Z,60.71
2022-12-12T04:45:33.486Z,61.48
2022-12-12T04:46:33.402Z,61.90
2022-12-12T04:47:33.383Z,58.71
2022-12-12T04:48:37.918Z,57.02
2022-12-12T04:49:34.431Z,58.28
2022-12-12T04:50:33.390Z,58.04
2022-12-12T04:51:33.369Z,60.74
2022-12-12T04:52:33.350Z,66.71
2022-12-12T04:53:33.357Z,58.74
2022-12-12T04:54:33.343Z,59.31
2022-12-12T04:55:33.314Z,58.65
2022-12-12T04:56:33.314Z,56.54
2022-12-12T04:57:33.294Z,60.11
2022-12-12T04:58:33.307Z,60.29
2022-12-12T04:59:33.281Z,58.63
2022-12-12T05:00:33.260Z,55.10
2022-12-12T05:01:33.309Z,56.14
2022-12-12T05:02:33.276Z,59.94
2022-12-12T05:03:33.238Z,57.87
2022-12-12T05:04:33.255Z,59.56
2022-12-12T05:05:33.226Z,59.15
2022-12-12T05:06:33.223Z,60.47
2022-12-12T05:07:39.278Z,59.22
2022-12-12T05:08:35.176Z,57.87
2022-12-12T05:09:33.188Z,60.60
2022-12-12T05:10:33.169Z,59.69
2022-12-12T05:11:33.151Z,57.19
2022-12-12T05:12:33.168Z,58.31
2022-12-12T05:13:33.142Z,68.69
2022-12-12T05:14:33.123Z,59.06
2022-12-12T05:15:33.121Z,58.67
2022-12-12T05:16:33.214Z,60.48
2022-12-12T05:17:33.121Z,57.69
2022-12-12T05:18:33.087Z,58.39
2022-12-12T05:19:33.110Z,58.68
2022-12-12T05:20:33.086Z,60.73
2022-12-12T05:21:33.066Z,66.47
2022-12-12T05:22:33.092Z,60.47
2022-12-12T05:23:34.815Z,60.51
2022-12-12T05:24:34.029Z,61.54
2022-12-12T05:25:33.020Z,60.86
2022-12-12T05:26:33.019Z,58.59
2022-12-12T05:27:33.041Z,59.63
2022-12-12T05:28:32.987Z,61.59
2022-12-12T05:29:32.979Z,59.01
2022-12-12T05:30:33.007Z,60.14
2022-12-12T05:31:32.967Z,58.91
2022-12-12T05:32:32.963Z,63.34
2022-12-12T05:33:32.971Z,61.35
2022-12-12T05:34:32.944Z,59.90
2022-12-12T05:35:32.920Z,60.85
2022-12-12T05:36:32.912Z,66.67
2022-12-12T05:37:32.912Z,67.85
2022-12-12T05:38:32.920Z,59.37
2022-12-12T05:39:32.910Z,60.33
2022-12-12T05:40:32.895Z,60.53
2022-12-12T05:41:32.900Z,64.77
2022-12-12T05:42:32.862Z,67.63
2022-12-12T05:43:32.852Z,60.16
2022-12-12T05:44:32.899Z,61.06
2022-12-12T05:45:32.831Z,59.55
2022-12-12T05:46:32.848Z,59.65
2022-12-12T05:47:32.815Z,61.38
2022-12-12T05:48:32.805Z,60.24
2022-12-12T05:49:32.802Z,61.04
2022-12-12T05:50:32.793Z,61.20
2022-12-12T05:51:32.809Z,60.74
2022-12-12T05:52:32.759Z,66.98
2022-12-12T05:53:41.996Z,61.65
2022-12-12T05:54:33.743Z,63.76
2022-12-12T05:55:32.732Z,60.63
2022-12-12T05:56:32.745Z,60.68
2022-12-12T05:57:32.715Z,59.88
2022-12-12T05:58:32.703Z,60.79
2022-12-12T05:59:32.707Z,61.06
2022-12-12T06:00:32.702Z,60.77
2022-12-12T06:01:32.721Z,67.77
2022-12-12T06:02:32.691Z,61.62
2022-12-12T06:03:32.667Z,62.13
2022-12-12T06:04:32.668Z,61.56
2022-12-12T06:05:32.640Z,62.18
2022-12-12T06:06:32.639Z,60.77
2022-12-12T06:07:32.616Z,58.59
2022-12-12T06:08:32.664Z,60.30
2022-12-12T06:09:32.645Z,60.38
2022-12-12T06:10:32.585Z,60.90
2022-12-12T06:11:32.581Z,59.83
2022-12-12T06:12:32.568Z,60.71
2022-12-12T06:13:32.567Z,61.98
2022-12-12T06:14:32.571Z,60.95
2022-12-12T06:15:32.597Z,62.46
2022-12-12T06:16:32.542Z,60.60
2022-12-12T06:17:33.584Z,62.07
2022-12-12T06:18:33.519Z,59.89
2022-12-12T06:19:32.504Z,67.38
2022-12-12T06:20:32.522Z,60.57
2022-12-12T06:21:32.491Z,61.01
2022-12-12T06:22:32.486Z,63.28
2022-12-12T06:23:32.469Z,67.43
2022-12-12T06:24:32.464Z,62.62
2022-12-12T06:25:32.464Z,61.44
2022-12-12T06:26:33.445Z,62.17
2022-12-12T06:27:32.430Z,62.33
2022-12-12T06:28:32.431Z,64.68
2022-12-12T06:29:32.422Z,70.26
2022-12-12T06:30:32.421Z,60.80
2022-12-12T06:31:32.614Z,61.69
2022-12-12T06:32:32.413Z,61.72
2022-12-12T06:33:32.379Z,63.04
2022-12-12T06:34:32.377Z,65.53
2022-12-12T06:35:32.370Z,60.66
2022-12-12T06:36:32.352Z,63.16
2022-12-12T06:37:33.364Z,62.07
2022-12-12T06:38:32.328Z,59.99
2022-12-12T06:39:32.319Z,58.59
2022-12-12T06:40:32.315Z,61.38
2022-12-12T06:41:32.297Z,60.69
2022-12-12T06:42:32.322Z,60.63
2022-12-12T06:43:32.280Z,66.01
2022-12-12T06:44:32.262Z,61.47
2022-12-12T06:45:32.267Z,60.62
2022-12-12T06:46:32.324Z,61.65
2022-12-12T06:47:32.250Z,60.71
2022-12-12T06:48:32.252Z,59.95
2022-12-12T06:49:32.262Z,60.63
2022-12-12T06:50:32.225Z,61.68
2022-12-12T06:51:32.214Z,64.17
2022-12-12T06:52:32.203Z,61.03
2022-12-12T06:53:32.181Z,61.50
2022-12-12T06:54:32.205Z,67.39
2022-12-12T06:55:32.169Z,62.09
2022-12-12T06:56:32.159Z,62.43
2022-12-12T06:57:32.155Z,61.87
2022-12-12T06:58:32.150Z,61.32
2022-12-12T06:59:32.139Z,62.84
2022-12-12T07:00:32.141Z,62.51
2022-12-12T07:01:32.129Z,66.72
2022-12-12T07:02:32.184Z,62.18
2022-12-12T07:03:32.090Z,62.17
2022-12-12T07:04:32.097Z,60.85
2022-12-12T07:05:32.094Z,60.75
2022-12-12T07:06:32.059Z,58.90
2022-12-12T07:07:32.048Z,60.33
2022-12-12T07:08:32.029Z,60.72
2022-12-12T07:09:32.031Z,62.73
2022-12-12T07:10:32.041Z,60.81
2022-12-12T07:11:32.013Z,61.83
2022-12-12T07:12:31.997Z,61.20
2022-12-12T07:13:31.990Z,60.40
2022-12-12T07:14:31.991Z,60.20
2022-12-12T07:15:32.048Z,61.17
2022-12-12T07:16:31.966Z,60.69
2022-12-12T07:17:31.981Z,59.66
2022-12-12T07:18:31.937Z,60.36
2022-12-12T07:19:31.937Z,63.27
2022-12-12T07:20:31.957Z,61.54
2022-12-12T07:21:31.911Z,59.85
2022-12-12T07:22:31.914Z,60.93
2022-12-12T07:23:31.894Z,61.33
2022-12-12T07:24:31.885Z,61.79
2022-12-12T07:25:31.873Z,61.50
2022-12-12T07:26:31.912Z,62.34
2022-12-12T07:27:31.855Z,60.13
2022-12-12T07:28:31.836Z,59.86
2022-12-12T07:29:31.881Z,62.66
2022-12-12T07:30:31.832Z,59.58
2022-12-12T07:31:31.865Z,58.15
2022-12-12T07:32:31.813Z,62.52
2022-12-12T07:33:42.652Z,61.54
2022-12-12T07:34:33.801Z,62.18
2022-12-12T07:35:31.784Z,60.39
2022-12-12T07:36:31.768Z,60.85
2022-12-12T07:37:31.782Z,59.97
2022-12-12T07:38:31.745Z,62.31
2022-12-12T07:39:31.790Z,60.28
2022-12-12T07:40:31.746Z,61.07
2022-12-12T07:41:31.781Z,60.52
2022-12-12T07:42:31.716Z,61.41
2022-12-12T07:43:33.193Z,59.96
2022-12-12T07:44:32.704Z,61.16
2022-12-12T07:45:31.694Z,59.45
2022-12-12T07:46:31.731Z,60.75
2022-12-12T07:47:31.684Z,59.47
2022-12-12T07:48:31.725Z,59.07
2022-12-12T07:49:31.675Z,61.18
2022-12-12T07:50:31.657Z,58.64
2022-12-12T07:51:31.626Z,61.44
2022-12-12T07:52:31.638Z,60.39
2022-12-12T07:53:31.640Z,60.08
2022-12-12T07:54:31.619Z,61.08
2022-12-12T07:55:31.602Z,66.35
2022-12-12T07:56:31.585Z,60.52
2022-12-12T07:57:31.573Z,59.19
2022-12-12T07:58:31.571Z,63.43
2022-12-12T07:59:31.578Z,63.41
2022-12-12T08:00:31.570Z,61.71
2022-12-12T08:01:31.651Z,68.40
2022-12-12T08:02:31.531Z,64.01
2022-12-12T08:03:31.515Z,60.45
2022-12-12T08:04:31.560Z,64.82
2022-12-12T08:05:32.518Z,64.29
2022-12-12T08:06:31.498Z,60.66
2022-12-12T08:07:31.482Z,59.68
2022-12-12T08:08:31.541Z,60.69
2022-12-12T08:09:31.480Z,60.72
2022-12-12T08:10:31.458Z,62.34
2022-12-12T08:11:31.524Z,63.22
2022-12-12T08:12:31.483Z,60.89
2022-12-12T08:13:31.429Z,60.16
2022-12-12T08:14:31.420Z,63.57
2022-12-12T08:15:31.404Z,58.08
2022-12-12T08:16:31.441Z,60.51
2022-12-12T08:17:31.415Z,61.59
2022-12-12T08:18:31.386Z,63.53
2022-12-12T08:19:31.379Z,60.37
2022-12-12T08:20:31.363Z,58.82
2022-12-12T08:21:31.357Z,62.14
2022-12-12T08:22:31.379Z,61.41
2022-12-12T08:23:31.341Z,60.77
2022-12-12T08:24:31.342Z,61.00
2022-12-12T08:25:31.322Z,61.48
2022-12-12T08:26:31.315Z,61.14
2022-12-12T08:27:31.328Z,60.88
2022-12-12T08:28:31.306Z,59.81
2022-12-12T08:29:31.289Z,59.95
2022-12-12T08:30:31.289Z,61.39
2022-12-12T08:31:31.291Z,61.86
2022-12-12T08:32:31.268Z,60.26
2022-12-12T08:33:31.223Z,60.67
2022-12-12T08:34:31.234Z,60.61
2022-12-12T08:35:31.242Z,59.95
2022-12-12T08:36:31.255Z,61.54
2022-12-12T08:37:31.199Z,59.65
2022-12-12T08:38:31.199Z,58.83
2022-12-12T08:39:31.171Z,61.29
2022-12-12T08:40:31.242Z,62.22
2022-12-12T08:41:31.162Z,61.51
2022-12-12T08:42:31.152Z,60.17
2022-12-12T08:43:31.147Z,60.97
2022-12-12T08:44:31.140Z,63.66
2022-12-12T08:45:31.129Z,62.02
2022-12-12T08:46:31.179Z,61.40
2022-12-12T08:47:31.119Z,59.56
2022-12-12T08:48:31.106Z,61.34
2022-12-12T08:49:31.093Z,60.64
2022-12-12T08:50:31.089Z,61.82
2022-12-12T08:51:31.117Z,60.33
2022-12-12T08:52:31.074Z,59.95
2022-12-12T08:53:31.057Z,62.26
2022-12-12T08:54:31.056Z,61.29
2022-12-12T08:55:31.037Z,60.96
2022-12-12T08:56:31.031Z,60.65
2022-12-12T08:57:31.008Z,61.32
2022-12-12T08:58:30.993Z,60.54
2022-12-12T08:59:31.028Z,60.80
2022-12-12T09:00:30.988Z,61.47
2022-12-12T09:01:31.041Z,61.94
2022-12-12T09:02:31.030Z,65.74
2022-12-12T09:04:02.870Z,61.16
2022-12-12T09:04:30.978Z,56.38
2022-12-12T09:05:30.956Z,58.59
2022-12-12T09:06:30.931Z,60.95
2022-12-12T09:07:30.931Z,60.00
2022-12-12T09:08:31.018Z,59.48
2022-12-12T09:09:30.933Z,58.27
2022-12-12T09:10:30.997Z,60.28
2022-12-12T09:11:30.880Z,60.59
2022-12-12T09:12:30.873Z,59.86
2022-12-12T09:13:30.870Z,61.23
2022-12-12T09:14:30.892Z,61.88
2022-12-12T09:15:30.866Z,66.76
2022-12-12T09:16:30.944Z,59.86
2022-12-12T09:17:30.823Z,61.80
2022-12-12T09:18:30.923Z,60.59
2022-12-12T09:19:30.814Z,60.44
2022-12-12T09:20:30.807Z,58.26
2022-12-12T09:21:30.785Z,58.36
2022-12-12T09:22:30.779Z,60.59
2022-12-12T09:23:30.779Z,56.59
2022-12-12T09:24:30.744Z,55.66
2022-12-12T09:25:30.739Z,59.89
2022-12-12T09:26:30.746Z,57.79
2022-12-12T09:27:30.739Z,58.76
2022-12-12T09:28:30.711Z,60.05
2022-12-12T09:29:30.715Z,57.60
2022-12-12T09:30:30.699Z,59.47
2022-12-12T09:31:30.764Z,64.68
2022-12-12T09:32:30.708Z,60.97
2022-12-12T09:33:30.687Z,63.74
2022-12-12T09:34:30.671Z,60.35
2022-12-12T09:35:30.663Z,60.19
2022-12-12T09:36:30.628Z,60.33
2022-12-12T09:37:30.628Z,59.20
2022-12-12T09:38:30.659Z,59.42
2022-12-12T09:39:30.615Z,61.12
2022-12-12T09:40:30.616Z,60.24
2022-12-12T09:41:30.609Z,61.29
2022-12-12T09:42:30.568Z,61.67
2022-12-12T09:43:30.573Z,66.24
2022-12-12T09:44:30.579Z,59.27
2022-12-12T09:45:30.582Z,60.05
2022-12-12T09:46:30.532Z,61.40
2022-12-12T09:47:30.517Z,60.32
2022-12-12T09:48:30.510Z,59.68
2022-12-12T09:49:30.562Z,58.40
2022-12-12T09:50:30.519Z,63.99
2022-12-12T09:51:30.481Z,58.66
2022-12-12T09:52:31.331Z,59.60
2022-12-12T09:53:31.467Z,62.09
2022-12-12T09:54:30.553Z,66.33
2022-12-12T09:55:30.633Z,60.53
2022-12-12T09:56:30.438Z,62.22
2022-12-12T09:57:30.424Z,60.04
2022-12-12T09:58:30.483Z,60.86
2022-12-12T09:59:30.410Z,59.81
2022-12-12T10:00:30.456Z,64.73
2022-12-12T10:01:30.509Z,57.88
2022-12-12T10:02:30.433Z,60.78
2022-12-12T10:03:30.463Z,60.34
2022-12-12T10:04:30.422Z,63.88
2022-12-12T10:05:30.500Z,61.44
2022-12-12T10:06:38.225Z,60.88
2022-12-12T10:07:32.416Z,60.76
2022-12-12T10:08:30.377Z,58.40
2022-12-12T10:09:30.327Z,60.85
2022-12-12T10:10:30.310Z,59.45
2022-12-12T10:11:30.309Z,58.87
2022-12-12T10:12:30.334Z,57.89
2022-12-12T10:13:30.275Z,58.29
2022-12-12T10:14:30.268Z,61.99
2022-12-12T10:15:30.265Z,61.03
2022-12-12T10:16:30.321Z,60.05
2022-12-12T10:17:30.235Z,59.06
2022-12-12T10:18:30.221Z,61.48
2022-12-12T10:19:30.224Z,59.69
2022-12-12T10:20:30.304Z,58.87
2022-12-12T10:21:30.225Z,61.56
2022-12-12T10:22:30.248Z,58.33
2022-12-12T10:23:30.215Z,61.67
2022-12-12T10:24:30.301Z,61.92
2022-12-12T10:25:30.179Z,58.82
2022-12-12T10:26:30.163Z,60.82
2022-12-12T10:27:30.256Z,60.22
2022-12-12T10:28:30.149Z,67.52
2022-12-12T10:29:30.115Z,59.31
2022-12-12T10:30:30.217Z,61.09
2022-12-12T10:31:31.204Z,58.73
2022-12-12T10:32:30.099Z,60.35
2022-12-12T10:33:30.121Z,66.98
2022-12-12T10:34:30.067Z,59.85
2022-12-12T10:35:30.576Z,62.20
2022-12-12T10:36:30.143Z,60.08
2022-12-12T10:37:30.041Z,58.76
2022-12-12T10:38:30.028Z,59.41
2022-12-12T10:39:30.114Z,58.51
2022-12-12T10:40:30.037Z,59.87
2022-12-12T10:41:30.005Z,59.14
2022-12-12T10:42:30.117Z,58.85
2022-12-12T10:43:29.977Z,59.31
2022-12-12T10:44:29.975Z,59.75
2022-12-12T10:45:30.133Z,60.67
2022-12-12T10:46:30.084Z,58.66
2022-12-12T10:47:29.948Z,58.55
2022-12-12T10:48:29.968Z,60.53
2022-12-12T10:49:29.927Z,62.23
2022-12-12T10:50:29.925Z,59.80
2022-12-12T10:51:29.929Z,58.55
2022-12-12T10:52:29.974Z,60.11
2022-12-12T10:53:29.891Z,59.21
2022-12-12T10:54:29.875Z,60.77
2022-12-12T10:55:30.943Z,57.33
2022-12-12T10:56:29.881Z,62.43
2022-12-12T10:57:30.860Z,61.48
2022-12-12T10:58:29.986Z,58.60
2022-12-12T10:59:29.844Z,59.41
2022-12-12T11:00:29.823Z,59.11
2022-12-12T11:02:00.650Z,59.05
2022-12-12T11:02:31.926Z,62.59
2022-12-12T11:03:29.958Z,60.07
2022-12-12T11:04:29.906Z,59.51
2022-12-12T11:05:29.812Z,64.59
2022-12-12T11:06:29.771Z,61.14
2022-12-12T11:07:29.783Z,59.40
2022-12-12T11:08:29.800Z,62.20
2022-12-12T11:09:29.838Z,60.73
2022-12-12T11:10:33.928Z,60.99
2022-12-12T11:11:29.716Z,62.18
2022-12-12T11:12:29.762Z,60.81
2022-12-12T11:13:29.708Z,60.00
2022-12-12T11:14:29.713Z,61.20
2022-12-12T11:15:29.687Z,65.33
2022-12-12T11:16:29.769Z,58.45
2022-12-12T11:17:29.684Z,61.42
2022-12-12T11:18:29.876Z,61.01
2022-12-12T11:19:29.744Z,60.84
2022-12-12T11:20:29.746Z,63.23
2022-12-12T11:21:29.682Z,59.29
2022-12-12T11:22:29.703Z,60.39
2022-12-12T11:23:29.646Z,61.05
2022-12-12T11:24:29.646Z,61.05
2022-12-12T11:25:29.594Z,59.27
2022-12-12T11:26:29.580Z,58.80
2022-12-12T11:27:29.754Z,59.71
2022-12-12T11:28:29.621Z,65.62
2022-12-12T11:29:29.580Z,60.06
2022-12-12T11:30:29.621Z,60.04
2022-12-12T11:31:29.572Z,58.49
2022-12-12T11:32:29.590Z,58.77
2022-12-12T11:33:29.511Z,59.19
2022-12-12T11:34:29.527Z,62.49
2022-12-12T11:35:29.534Z,60.09
2022-12-12T11:36:29.508Z,61.01
2022-12-12T11:37:29.488Z,59.86
2022-12-12T11:38:29.485Z,58.07
2022-12-12T11:39:29.503Z,60.32
2022-12-12T11:40:29.461Z,58.86
2022-12-12T11:41:29.439Z,60.13
2022-12-12T11:42:29.436Z,59.93
2022-12-12T11:43:29.423Z,58.73
2022-12-12T11:44:29.429Z,60.06
2022-12-12T11:45:29.473Z,59.46
2022-12-12T11:46:29.398Z,59.53
2022-12-12T11:47:29.374Z,59.80
2022-12-12T11:48:29.373Z,59.34
2022-12-12T11:49:29.391Z,60.75
2022-12-12T11:50:29.363Z,58.55
2022-12-12T11:51:29.361Z,59.05
2022-12-12T11:52:29.370Z,63.01
2022-12-12T11:53:29.327Z,62.05
2022-12-12T11:54:29.322Z,62.56
2022-12-12T11:55:29.296Z,60.52
2022-12-12T11:56:29.315Z,61.70
2022-12-12T11:57:29.325Z,58.81
2022-12-12T11:58:29.261Z,66.34
2022-12-12T11:59:29.282Z,59.83
2022-12-12T12:00:29.249Z,60.15
2022-12-12T12:01:29.237Z,58.67
2022-12-12T12:02:29.275Z,61.19
2022-12-12T12:03:29.296Z,60.56
2022-12-12T12:04:29.241Z,59.59
2022-12-12T12:05:29.254Z,57.22
2022-12-12T12:06:29.198Z,60.74
2022-12-12T12:07:29.205Z,61.55
2022-12-12T12:08:29.222Z,60.70
2022-12-12T12:09:29.175Z,61.53
2022-12-12T12:10:29.158Z,63.81
2022-12-12T12:11:29.151Z,59.67
2022-12-12T12:12:29.161Z,57.46
2022-12-12T12:13:29.162Z,60.54
2022-12-12T12:14:29.113Z,60.83
2022-12-12T12:15:29.114Z,61.92
2022-12-12T12:16:29.238Z,59.94
2022-12-12T12:17:29.111Z,61.35
2022-12-12T12:18:29.072Z,60.70
2022-12-12T12:19:29.098Z,60.53
2022-12-12T12:20:29.055Z,61.18
2022-12-12T12:21:29.042Z,61.08
2022-12-12T12:22:29.069Z,59.69
2022-12-12T12:23:29.037Z,58.98
2022-12-12T12:24:29.035Z,60.44
2022-12-12T12:25:29.005Z,59.78
2022-12-12T12:26:29.081Z,58.37
2022-12-12T12:27:29.017Z,59.43
2022-12-12T12:28:29.007Z,60.10
2022-12-12T12:29:28.965Z,59.23
2022-12-12T12:30:29.061Z,60.79
2022-12-12T12:31:28.949Z,65.42
2022-12-12T12:32:28.943Z,59.77
2022-12-12T12:33:28.936Z,61.04
2022-12-12T12:34:28.945Z,61.36
2022-12-12T12:35:28.942Z,60.41
2022-12-12T12:36:28.907Z,62.10
2022-12-12T12:37:28.896Z,62.32
2022-12-12T12:38:28.887Z,62.87
2022-12-12T12:39:28.881Z,60.12
2022-12-12T12:40:28.855Z,58.49
2022-12-12T12:41:28.877Z,60.72
2022-12-12T12:42:28.869Z,62.46
2022-12-12T12:43:28.886Z,60.93
2022-12-12T12:44:28.823Z,58.64
2022-12-12T12:45:28.825Z,64.01
2022-12-12T12:46:28.893Z,59.71
2022-12-12T12:47:28.865Z,59.93
2022-12-12T12:48:28.941Z,59.62
2022-12-12T12:49:28.783Z,68.18
2022-12-12T12:50:28.772Z,60.46
2022-12-12T12:51:28.768Z,60.42
2022-12-12T12:52:28.788Z,59.40